Time;durP1;ratioP1;P1;durP2;ratioP2;P2;SDS_P1;SDS_P2;PMS_P1;PMS_P2;Temp;Humidity;BMP_temperature;BMP_pressure;BME280_temperature;BME280_humidity;BME280_pressure;Samples;Min_cycle;Max_cycle;Signal;HPM_P1;HPM_P2
2024/03/03 00:01:02;;;;;;;7.25;5.47;;;;;;;;;;4969446;28;20171;-77
2024/03/03 00:03:28;;;;;;;6.97;5.18;;;;;;;;;;4990133;28;20117;-77
2024/03/03 00:05:53;;;;;;;6.32;4.75;;;;;;;;;;4980203;28;20038;-78
2024/03/03 00:08:18;;;;;;;6.05;4.80;;;;;;;;;;4965032;28;20043;-79
2024/03/03 00:10:44;;;;;;;6.70;5.03;;;;;;;;;;4992681;28;20030;-79
2024/03/03 00:13:09;;;;;;;7.35;4.93;;;;;;;;;;4995764;28;20117;-78
2024/03/03 00:15:34;;;;;;;6.93;5.15;;;;;;;;;;4990438;28;20039;-77
2024/03/03 00:18:00;;;;;;;7.13;5.22;;;;;;;;;;4974932;28;20058;-78
2024/03/03 00:20:25;;;;;;;6.80;4.80;;;;;;;;;;4971403;28;20403;-78
2024/03/03 00:22:52;;;;;;;7.38;5.15;;;;;;;;;;4967643;28;20066;-79
2024/03/03 00:25:17;;;;;;;7.03;5.18;;;;;;;;;;4995790;28;20042;-78
2024/03/03 00:27:43;;;;;;;7.13;5.20;;;;;;;;;;4969294;28;20042;-78
2024/03/03 00:30:08;;;;;;;7.57;5.03;;;;;;;;;;4966565;28;20071;-78
2024/03/03 00:32:34;;;;;;;6.35;5.15;;;;;;;;;;4982386;28;20042;-78
2024/03/03 00:34:59;;;;;;;7.38;5.20;;;;;;;;;;4994901;28;20335;-78
2024/03/03 00:37:24;;;;;;;7.28;5.53;;;;;;;;;;4992819;28;20090;-78
2024/03/03 00:39:50;;;;;;;6.75;5.47;;;;;;;;;;4996380;28;20530;-78
2024/03/03 00:42:15;;;;;;;6.13;4.78;;;;;;;;;;4984591;28;20034;-79
2024/03/03 00:44:40;;;;;;;7.30;5.50;;;;;;;;;;4984269;28;20136;-78
2024/03/03 00:47:07;;;;;;;6.82;5.40;;;;;;;;;;4989533;28;20038;-79
2024/03/03 00:49:32;;;;;;;6.65;5.13;;;;;;;;;;4969278;28;20031;-78
2024/03/03 00:51:58;;;;;;;7.28;5.28;;;;;;;;;;4966840;28;20125;-78
2024/03/03 00:54:23;;;;;;;7.07;5.18;;;;;;;;;;4974834;28;20047;-78
2024/03/03 00:56:49;;;;;;;7.53;5.07;;;;;;;;;;4964475;28;20067;-78
2024/03/03 00:59:15;;;;;;;7.30;5.18;;;;;;;;;;4968746;28;20880;-77
2024/03/03 01:04:15;;;;;;;7.18;5.25;;;;;;;;;;3321157;26;20060;-67
2024/03/03 01:06:41;;;;;;;6.53;5.00;;;;;;;;;;4987389;28;20038;-73
2024/03/03 01:09:06;;;;;;;6.35;4.90;;;;;;;;;;4987226;28;20500;-72
2024/03/03 01:11:32;;;;;;;7.05;4.93;;;;;;;;;;4994923;28;20346;-72
2024/03/03 01:13:57;;;;;;;5.97;4.70;;;;;;;;;;4997321;28;20026;-72
2024/03/03 01:16:22;;;;;;;6.78;4.82;;;;;;;;;;4990663;28;20129;-72
2024/03/03 01:18:48;;;;;;;7.25;5.05;;;;;;;;;;4989093;28;20046;-72
2024/03/03 01:21:13;;;;;;;7.05;4.90;;;;;;;;;;4988432;28;20030;-72
2024/03/03 01:23:38;;;;;;;6.90;5.28;;;;;;;;;;4987673;28;20034;-72
2024/03/03 01:26:04;;;;;;;7.00;5.18;;;;;;;;;;4990467;28;20038;-71
2024/03/03 01:28:29;;;;;;;5.88;4.75;;;;;;;;;;4988252;28;20092;-72
2024/03/03 01:30:55;;;;;;;7.00;5.30;;;;;;;;;;4986339;28;20034;-71
2024/03/03 01:33:20;;;;;;;6.15;5.00;;;;;;;;;;4987396;28;20026;-72
2024/03/03 01:35:45;;;;;;;6.07;5.20;;;;;;;;;;4987809;28;20404;-72
2024/03/03 01:38:11;;;;;;;6.80;5.13;;;;;;;;;;4985131;28;20042;-72
2024/03/03 01:40:36;;;;;;;6.85;5.00;;;;;;;;;;4980407;28;20034;-72
2024/03/03 01:43:02;;;;;;;6.25;4.78;;;;;;;;;;5009769;28;20114;-72
2024/03/03 01:45:27;;;;;;;7.00;4.93;;;;;;;;;;4991115;28;20049;-72
2024/03/03 01:47:54;;;;;;;6.55;5.18;;;;;;;;;;4987344;28;20030;-72
2024/03/03 01:50:19;;;;;;;5.47;4.50;;;;;;;;;;4987146;28;20043;-72
2024/03/03 01:52:45;;;;;;;6.47;4.63;;;;;;;;;;4987124;28;20125;-72
2024/03/03 01:55:10;;;;;;;6.72;4.75;;;;;;;;;;4983041;28;20125;-72
2024/03/03 01:57:35;;;;;;;6.45;4.93;;;;;;;;;;5002232;28;20530;-72
2024/03/03 02:00:04;;;;;;;6.93;4.75;;;;;;;;;;4973556;28;20422;-69
2024/03/03 02:02:29;;;;;;;6.30;5.07;;;;;;;;;;5000567;28;20052;-72
2024/03/03 02:04:55;;;;;;;6.97;4.97;;;;;;;;;;4991530;28;20479;-72
2024/03/03 02:07:20;;;;;;;6.20;5.03;;;;;;;;;;4980357;28;20457;-71
2024/03/03 02:09:45;;;;;;;6.60;4.60;;;;;;;;;;4977336;28;20500;-70
2024/03/03 02:12:10;;;;;;;6.57;4.70;;;;;;;;;;4985325;28;20121;-71
2024/03/03 02:14:37;;;;;;;5.63;4.55;;;;;;;;;;4977581;28;20022;-72
2024/03/03 02:17:02;;;;;;;5.38;4.40;;;;;;;;;;4996533;28;20432;-72
2024/03/03 02:19:32;;;;;;;5.80;4.65;;;;;;;;;;4982490;28;20031;-72
2024/03/03 02:21:57;;;;;;;6.57;5.13;;;;;;;;;;4998210;28;20069;-68
2024/03/03 02:24:22;;;;;;;7.70;5.43;;;;;;;;;;4988028;28;20030;-72
2024/03/03 02:26:48;;;;;;;6.40;4.80;;;;;;;;;;4982180;28;20062;-69
2024/03/03 02:29:13;;;;;;;6.13;4.60;;;;;;;;;;4982511;28;20025;-72
2024/03/03 02:31:39;;;;;;;5.93;4.88;;;;;;;;;;4984983;28;20073;-72
2024/03/03 02:34:04;;;;;;;6.38;5.20;;;;;;;;;;4980467;28;20096;-72
2024/03/03 02:36:29;;;;;;;6.30;4.82;;;;;;;;;;4979599;28;20131;-71
2024/03/03 02:38:57;;;;;;;6.35;4.85;;;;;;;;;;5002343;28;20033;-71
2024/03/03 02:41:22;;;;;;;5.63;4.60;;;;;;;;;;4985965;28;20019;-71
2024/03/03 02:43:47;;;;;;;6.72;5.00;;;;;;;;;;4982531;28;20097;-70
2024/03/03 02:46:13;;;;;;;6.28;4.97;;;;;;;;;;4988946;28;20018;-71
2024/03/03 02:48:38;;;;;;;7.13;5.47;;;;;;;;;;4983467;28;20023;-72
2024/03/03 02:51:04;;;;;;;6.63;5.05;;;;;;;;;;4973767;28;20109;-72
2024/03/03 02:53:29;;;;;;;5.85;4.68;;;;;;;;;;4987417;28;20030;-71
2024/03/03 02:55:55;;;;;;;6.65;5.43;;;;;;;;;;4977622;28;20046;-71
2024/03/03 02:58:20;;;;;;;6.97;5.45;;;;;;;;;;4984687;28;20034;-71
2024/03/03 03:00:45;;;;;;;5.57;4.80;;;;;;;;;;4985343;28;20026;-72
2024/03/03 03:03:11;;;;;;;6.28;4.90;;;;;;;;;;4985592;28;20022;-72
2024/03/03 03:05:36;;;;;;;5.68;4.90;;;;;;;;;;4992879;28;20041;-71
2024/03/03 03:08:01;;;;;;;5.72;4.25;;;;;;;;;;4991456;28;20041;-71
2024/03/03 03:10:26;;;;;;;6.35;5.30;;;;;;;;;;4969449;28;20027;-71
2024/03/03 03:12:52;;;;;;;6.25;4.82;;;;;;;;;;4985566;28;20018;-72
2024/03/03 03:15:17;;;;;;;6.22;5.20;;;;;;;;;;4979890;28;20026;-71
2024/03/03 03:17:42;;;;;;;7.07;5.38;;;;;;;;;;4997466;28;20431;-71
2024/03/03 03:20:08;;;;;;;6.10;4.85;;;;;;;;;;4983762;28;20022;-72
2024/03/03 03:22:34;;;;;;;6.47;4.70;;;;;;;;;;4985124;28;20499;-71
2024/03/03 03:24:59;;;;;;;6.32;4.90;;;;;;;;;;4979436;28;20026;-70
2024/03/03 03:27:24;;;;;;;5.72;4.20;;;;;;;;;;4983065;28;20437;-69
2024/03/03 03:29:49;;;;;;;4.93;4.07;;;;;;;;;;4974224;28;20023;-71
2024/03/03 03:32:15;;;;;;;6.75;5.22;;;;;;;;;;4981062;28;20528;-72
2024/03/03 03:34:43;;;;;;;6.13;4.88;;;;;;;;;;4982941;28;20452;-71
2024/03/03 03:37:08;;;;;;;6.65;4.90;;;;;;;;;;5001191;28;20056;-72
2024/03/03 03:39:33;;;;;;;7.00;5.03;;;;;;;;;;4995400;28;20159;-71
2024/03/03 03:41:59;;;;;;;6.95;5.03;;;;;;;;;;4985166;28;20062;-72
2024/03/03 03:44:24;;;;;;;5.78;4.85;;;;;;;;;;4982138;28;20544;-72
2024/03/03 03:46:49;;;;;;;6.57;4.70;;;;;;;;;;5000566;28;20406;-72
2024/03/03 03:49:14;;;;;;;9.70;5.55;;;;;;;;;;4987513;28;20022;-71
2024/03/03 03:51:40;;;;;;;5.60;4.63;;;;;;;;;;4984695;28;20018;-72
2024/03/03 03:54:05;;;;;;;6.57;4.88;;;;;;;;;;4985281;28;20400;-72
2024/03/03 03:56:31;;;;;;;5.55;4.60;;;;;;;;;;4981125;28;20139;-72
2024/03/03 03:58:57;;;;;;;6.47;5.13;;;;;;;;;;4979972;28;20034;-72
2024/03/03 04:01:22;;;;;;;6.10;4.63;;;;;;;;;;4973055;28;20042;-72
2024/03/03 04:03:48;;;;;;;6.05;4.88;;;;;;;;;;4984592;28;20479;-71
2024/03/03 04:06:13;;;;;;;6.03;4.82;;;;;;;;;;4981042;28;20557;-72
2024/03/03 04:08:39;;;;;;;5.90;4.72;;;;;;;;;;4981714;28;20038;-72
2024/03/03 04:11:05;;;;;;;6.22;4.85;;;;;;;;;;4970383;28;20121;-72
2024/03/03 04:13:30;;;;;;;6.20;4.53;;;;;;;;;;4984965;28;20045;-72
2024/03/03 04:15:55;;;;;;;6.13;4.82;;;;;;;;;;4993568;28;21735;-72
2024/03/03 04:18:21;;;;;;;5.95;4.65;;;;;;;;;;4997465;28;20042;-72
2024/03/03 04:20:46;;;;;;;6.28;4.88;;;;;;;;;;4982840;28;20109;-72
2024/03/03 04:23:11;;;;;;;7.45;5.20;;;;;;;;;;4987440;28;20022;-71
2024/03/03 04:25:37;;;;;;;6.28;4.75;;;;;;;;;;4993955;28;20473;-72
2024/03/03 04:28:02;;;;;;;6.57;4.72;;;;;;;;;;4982911;28;20515;-72
2024/03/03 04:30:28;;;;;;;5.95;4.45;;;;;;;;;;4984199;28;20078;-72
2024/03/03 04:32:53;;;;;;;6.57;5.00;;;;;;;;;;4984705;28;20062;-68
2024/03/03 04:35:18;;;;;;;7.03;5.20;;;;;;;;;;4986100;28;20026;-71
2024/03/03 04:37:44;;;;;;;7.10;5.22;;;;;;;;;;4997955;28;20412;-71
2024/03/03 04:40:09;;;;;;;6.30;4.88;;;;;;;;;;4989150;28;20073;-71
2024/03/03 04:42:34;;;;;;;6.53;5.07;;;;;;;;;;4983775;28;20125;-71
2024/03/03 04:45:00;;;;;;;6.15;4.90;;;;;;;;;;4981330;28;20073;-70
2024/03/03 04:47:25;;;;;;;6.13;4.72;;;;;;;;;;4982533;28;20089;-71
2024/03/03 04:49:50;;;;;;;6.55;4.57;;;;;;;;;;4977847;28;20069;-69
2024/03/03 04:52:16;;;;;;;7.07;4.70;;;;;;;;;;4990616;28;20031;-71
2024/03/03 04:54:41;;;;;;;6.43;4.85;;;;;;;;;;4983884;28;20532;-71
2024/03/03 04:57:07;;;;;;;6.72;4.97;;;;;;;;;;4978893;28;20038;-70
2024/03/03 04:59:32;;;;;;;6.45;5.30;;;;;;;;;;4981415;28;20037;-71
2024/03/03 05:01:57;;;;;;;7.88;4.70;;;;;;;;;;4981293;28;20058;-71
2024/03/03 05:04:23;;;;;;;5.88;4.90;;;;;;;;;;4983149;28;20478;-71
2024/03/03 05:06:48;;;;;;;6.88;4.97;;;;;;;;;;4993326;28;20041;-71
2024/03/03 05:09:14;;;;;;;6.82;5.03;;;;;;;;;;4996510;28;20035;-71
2024/03/03 05:11:39;;;;;;;6.85;5.15;;;;;;;;;;4993142;28;20519;-71
2024/03/03 05:14:05;;;;;;;5.85;4.53;;;;;;;;;;4988997;28;20092;-70
2024/03/03 05:16:30;;;;;;;7.07;5.07;;;;;;;;;;4979561;28;20042;-71
2024/03/03 05:18:55;;;;;;;7.55;5.38;;;;;;;;;;4982875;28;20454;-70
2024/03/03 05:21:21;;;;;;;6.38;5.35;;;;;;;;;;4982284;28;20141;-71
2024/03/03 05:23:46;;;;;;;5.80;4.60;;;;;;;;;;4987549;28;20074;-71
2024/03/03 05:26:15;;;;;;;6.45;4.70;;;;;;;;;;4983043;28;20034;-71
2024/03/03 05:28:40;;;;;;;5.93;4.90;;;;;;;;;;4983699;28;20464;-71
2024/03/03 05:31:06;;;;;;;6.30;5.10;;;;;;;;;;4981685;28;20034;-69
2024/03/03 05:33:31;;;;;;;6.95;5.13;;;;;;;;;;4983788;28;20548;-71
2024/03/03 05:35:56;;;;;;;7.28;5.20;;;;;;;;;;4982241;28;20069;-70
2024/03/03 05:38:22;;;;;;;6.72;4.60;;;;;;;;;;4983246;28;20065;-70
2024/03/03 05:40:47;;;;;;;7.25;5.47;;;;;;;;;;4985587;28;20493;-73
2024/03/03 05:43:12;;;;;;;7.22;5.03;;;;;;;;;;4994026;28;20031;-70
2024/03/03 05:45:37;;;;;;;6.78;4.85;;;;;;;;;;4983532;28;20475;-69
2024/03/03 05:48:03;;;;;;;7.88;5.15;;;;;;;;;;4981397;28;20035;-72
2024/03/03 05:50:28;;;;;;;7.82;5.78;;;;;;;;;;4978719;28;20065;-70
2024/03/03 05:52:53;;;;;;;7.00;5.03;;;;;;;;;;4985287;28;20037;-69
2024/03/03 05:55:19;;;;;;;6.30;4.80;;;;;;;;;;4985818;28;20396;-69
2024/03/03 05:57:45;;;;;;;6.70;4.82;;;;;;;;;;4989938;28;20129;-68
2024/03/03 06:00:14;;;;;;;6.82;4.88;;;;;;;;;;4980075;28;20145;-67
2024/03/03 06:02:40;;;;;;;7.00;4.95;;;;;;;;;;4978094;28;20543;-70
2024/03/03 06:05:05;;;;;;;7.18;4.95;;;;;;;;;;4980191;28;20038;-69
2024/03/03 06:07:31;;;;;;;6.93;4.78;;;;;;;;;;4983580;28;20534;-70
2024/03/03 06:09:56;;;;;;;7.07;5.15;;;;;;;;;;4984264;28;20046;-68
2024/03/03 06:12:21;;;;;;;7.22;4.85;;;;;;;;;;4979550;28;20039;-67
2024/03/03 06:14:47;;;;;;;6.60;5.22;;;;;;;;;;4986080;28;20038;-72
2024/03/03 06:17:13;;;;;;;6.40;4.60;;;;;;;;;;4982748;28;20077;-66
2024/03/03 06:19:38;;;;;;;7.68;4.93;;;;;;;;;;4975951;28;20045;-72
2024/03/03 06:22:03;;;;;;;6.63;4.88;;;;;;;;;;4981104;28;20035;-69
2024/03/03 06:24:28;;;;;;;7.07;4.90;;;;;;;;;;4983235;28;20046;-68
2024/03/03 06:26:54;;;;;;;7.05;4.60;;;;;;;;;;4982281;28;20062;-69
2024/03/03 06:29:19;;;;;;;6.40;4.68;;;;;;;;;;4989532;28;20038;-68
2024/03/03 06:31:45;;;;;;;6.75;5.05;;;;;;;;;;4980996;28;20039;-74
2024/03/03 06:34:10;;;;;;;6.80;4.63;;;;;;;;;;4981834;28;20031;-65
2024/03/03 06:36:36;;;;;;;7.25;5.03;;;;;;;;;;4982620;28;20045;-72
2024/03/03 06:39:03;;;;;;;6.85;5.00;;;;;;;;;;4985481;28;20030;-70
2024/03/03 06:41:28;;;;;;;6.70;4.88;;;;;;;;;;4985852;28;20496;-71
2024/03/03 06:43:55;;;;;;;7.60;4.85;;;;;;;;;;4982284;28;20046;-71
2024/03/03 06:46:20;;;;;;;6.20;4.65;;;;;;;;;;4980420;28;20158;-69
2024/03/03 06:48:45;;;;;;;6.25;4.97;;;;;;;;;;4980682;28;20098;-70
2024/03/03 06:51:12;;;;;;;6.20;4.45;;;;;;;;;;4976567;28;20038;-71
2024/03/03 06:53:38;;;;;;;7.25;5.25;;;;;;;;;;4985224;28;20508;-68
2024/03/03 06:56:04;;;;;;;7.45;4.93;;;;;;;;;;4981103;28;20045;-72
2024/03/03 06:58:29;;;;;;;7.50;5.03;;;;;;;;;;4989886;28;20054;-67
2024/03/03 07:00:54;;;;;;;8.00;5.50;;;;;;;;;;4985363;28;20125;-68
2024/03/03 07:06:04;;;;;;;7.50;5.28;;;;;;;;;;4984876;28;20133;-70
2024/03/03 07:08:29;;;;;;;7.55;4.97;;;;;;;;;;4983175;28;20133;-74
2024/03/03 07:10:54;;;;;;;7.03;4.93;;;;;;;;;;4984915;28;20038;-70
2024/03/03 07:13:19;;;;;;;7.57;5.07;;;;;;;;;;4982818;28;20042;-71
2024/03/03 07:15:45;;;;;;;8.40;5.47;;;;;;;;;;4986634;28;20042;-70
2024/03/03 07:18:10;;;;;;;8.50;5.43;;;;;;;;;;4982724;28;20041;-68
2024/03/03 07:20:35;;;;;;;7.05;5.07;;;;;;;;;;4983248;28;20043;-71
2024/03/03 07:23:01;;;;;;;6.97;5.03;;;;;;;;;;4987583;28;20121;-69
2024/03/03 07:25:26;;;;;;;8.45;5.32;;;;;;;;;;4985068;28;20046;-70
2024/03/03 07:27:51;;;;;;;10.15;5.75;;;;;;;;;;4986366;28;20039;-68
2024/03/03 07:30:17;;;;;;;8.38;5.15;;;;;;;;;;4982431;28;20101;-68
2024/03/03 07:32:42;;;;;;;8.55;5.45;;;;;;;;;;4981584;28;20058;-68
2024/03/03 07:35:08;;;;;;;9.13;5.50;;;;;;;;;;4989364;28;20515;-68
2024/03/03 07:37:33;;;;;;;10.23;5.85;;;;;;;;;;4979962;28;20109;-68
2024/03/03 07:39:58;;;;;;;8.82;6.05;;;;;;;;;;4978930;28;20040;-68
2024/03/03 07:42:24;;;;;;;7.43;5.25;;;;;;;;;;4981229;28;20093;-68
2024/03/03 07:44:49;;;;;;;8.05;5.43;;;;;;;;;;4983652;28;20630;-69
2024/03/03 07:47:14;;;;;;;8.25;5.50;;;;;;;;;;4978748;28;20053;-68
2024/03/03 07:49:42;;;;;;;11.02;5.30;;;;;;;;;;4970076;28;20116;-69
2024/03/03 07:52:08;;;;;;;8.73;6.25;;;;;;;;;;4971964;28;20081;-69
2024/03/03 07:54:34;;;;;;;10.25;5.70;;;;;;;;;;4971823;28;20072;-67
2024/03/03 07:56:59;;;;;;;8.93;6.05;;;;;;;;;;4971493;28;20046;-67
2024/03/03 07:59:24;;;;;;;9.65;5.93;;;;;;;;;;4970423;28;20038;-69
2024/03/03 08:01:49;;;;;;;7.65;5.20;;;;;;;;;;4969737;28;20039;-67
2024/03/03 08:04:15;;;;;;;7.72;5.60;;;;;;;;;;4969810;28;20163;-67
2024/03/03 08:06:41;;;;;;;7.88;5.32;;;;;;;;;;4966180;28;20053;-66
2024/03/03 08:09:06;;;;;;;8.88;5.72;;;;;;;;;;4968507;28;20142;-66
2024/03/03 08:11:33;;;;;;;9.95;5.90;;;;;;;;;;4970683;28;20046;-67
2024/03/03 08:13:58;;;;;;;8.55;5.80;;;;;;;;;;4970874;28;20222;-67
2024/03/03 08:16:24;;;;;;;8.52;5.78;;;;;;;;;;4968927;28;20148;-68
2024/03/03 08:18:49;;;;;;;7.90;5.30;;;;;;;;;;4971624;28;22155;-66
2024/03/03 08:21:14;;;;;;;9.98;5.75;;;;;;;;;;4970329;28;20127;-67
2024/03/03 08:23:40;;;;;;;7.10;5.15;;;;;;;;;;4971124;28;20053;-66
2024/03/03 08:26:05;;;;;;;9.43;5.63;;;;;;;;;;4971208;28;20046;-71
2024/03/03 08:28:34;;;;;;;8.77;5.45;;;;;;;;;;4972826;28;20158;-69
2024/03/03 08:31:00;;;;;;;9.20;5.90;;;;;;;;;;4969501;28;20045;-69
2024/03/03 08:33:26;;;;;;;7.57;5.78;;;;;;;;;;4973078;28;20565;-70
2024/03/03 08:35:52;;;;;;;7.70;5.47;;;;;;;;;;4970807;28;20042;-67
2024/03/03 08:38:17;;;;;;;8.43;5.57;;;;;;;;;;4969769;28;20464;-68
2024/03/03 08:40:42;;;;;;;8.63;5.43;;;;;;;;;;4969503;28;20042;-67
2024/03/03 08:43:08;;;;;;;7.78;5.93;;;;;;;;;;4970464;28;20035;-68
2024/03/03 08:45:33;;;;;;;6.75;4.70;;;;;;;;;;4971804;28;20046;-68
2024/03/03 08:47:58;;;;;;;9.15;5.80;;;;;;;;;;4968841;28;20042;-69
2024/03/03 08:50:23;;;;;;;8.48;5.40;;;;;;;;;;4970859;28;20130;-69
2024/03/03 08:52:49;;;;;;;9.20;5.72;;;;;;;;;;4974413;28;20397;-68
2024/03/03 08:55:15;;;;;;;9.73;5.97;;;;;;;;;;4974261;28;20048;-69
2024/03/03 08:57:41;;;;;;;7.93;6.05;;;;;;;;;;4974403;28;20078;-68
2024/03/03 09:00:12;;;;;;;7.60;5.10;;;;;;;;;;4973319;28;20045;-70
2024/03/03 09:02:38;;;;;;;8.00;5.78;;;;;;;;;;4974570;28;20112;-71
2024/03/03 09:05:03;;;;;;;8.57;6.03;;;;;;;;;;4975854;28;20507;-68
2024/03/03 09:07:29;;;;;;;7.50;5.53;;;;;;;;;;4974581;28;20161;-67
2024/03/03 09:09:54;;;;;;;8.98;5.82;;;;;;;;;;4973873;28;20467;-66
2024/03/03 09:12:19;;;;;;;9.32;5.82;;;;;;;;;;4973739;28;20038;-66
2024/03/03 09:14:44;;;;;;;8.25;5.75;;;;;;;;;;4974299;28;20035;-66
2024/03/03 09:17:10;;;;;;;8.10;5.53;;;;;;;;;;4972296;28;20051;-68
2024/03/03 09:19:35;;;;;;;8.77;6.05;;;;;;;;;;4973490;28;20042;-65
2024/03/03 09:22:00;;;;;;;7.45;5.47;;;;;;;;;;4972622;28;20026;-67
2024/03/03 09:24:26;;;;;;;9.10;5.75;;;;;;;;;;4973534;28;20050;-69
2024/03/03 09:26:51;;;;;;;8.45;5.95;;;;;;;;;;4972432;28;20073;-67
2024/03/03 09:29:17;;;;;;;8.02;5.60;;;;;;;;;;4972545;28;20107;-68
2024/03/03 09:31:42;;;;;;;8.35;5.78;;;;;;;;;;4972846;28;20057;-69
2024/03/03 09:34:07;;;;;;;12.02;5.97;;;;;;;;;;4973456;28;20117;-67
2024/03/03 09:36:34;;;;;;;22.83;7.03;;;;;;;;;;4973014;28;20528;-67
2024/03/03 09:38:59;;;;;;;17.52;6.47;;;;;;;;;;4972695;28;20038;-67
2024/03/03 09:41:25;;;;;;;11.77;6.18;;;;;;;;;;4972248;28;20034;-68
2024/03/03 09:43:54;;;;;;;13.77;6.05;;;;;;;;;;4977168;28;20046;-68
2024/03/03 09:46:20;;;;;;;10.90;6.20;;;;;;;;;;4997457;28;20041;-68
2024/03/03 09:48:45;;;;;;;12.88;5.97;;;;;;;;;;4969410;28;20039;-68
2024/03/03 09:51:11;;;;;;;8.98;5.82;;;;;;;;;;4971860;28;20026;-68
2024/03/03 09:53:37;;;;;;;9.35;5.68;;;;;;;;;;4972339;28;20034;-68
2024/03/03 09:56:04;;;;;;;11.95;6.60;;;;;;;;;;4973913;28;20031;-67
2024/03/03 09:58:29;;;;;;;9.20;5.95;;;;;;;;;;4971507;28;20047;-67
2024/03/03 10:00:54;;;;;;;9.93;5.95;;;;;;;;;;4973131;28;20069;-69
2024/03/03 10:03:21;;;;;;;11.43;6.05;;;;;;;;;;4970689;28;20129;-67
2024/03/03 10:05:46;;;;;;;12.75;8.43;;;;;;;;;;4971419;28;20038;-68
2024/03/03 10:08:11;;;;;;;18.20;10.52;;;;;;;;;;4970854;28;20027;-67
2024/03/03 10:10:38;;;;;;;19.63;11.57;;;;;;;;;;4971064;28;20499;-68
2024/03/03 10:13:04;;;;;;;18.98;11.95;;;;;;;;;;4971832;28;20031;-67
2024/03/03 10:15:30;;;;;;;20.77;12.18;;;;;;;;;;4972693;28;20035;-67
2024/03/03 10:17:55;;;;;;;18.58;11.65;;;;;;;;;;4970590;28;20073;-67
2024/03/03 10:20:20;;;;;;;21.13;12.75;;;;;;;;;;4973259;28;20042;-66
2024/03/03 10:22:46;;;;;;;18.88;12.07;;;;;;;;;;4969040;28;20052;-68
2024/03/03 10:25:12;;;;;;;16.85;10.88;;;;;;;;;;4972683;28;20035;-69
2024/03/03 10:27:39;;;;;;;16.85;10.43;;;;;;;;;;4972127;28;20042;-69
2024/03/03 10:30:09;;;;;;;16.73;11.07;;;;;;;;;;4974000;28;20047;-68
2024/03/03 10:32:35;;;;;;;15.80;9.70;;;;;;;;;;4970739;28;20084;-68
2024/03/03 10:35:00;;;;;;;13.55;8.82;;;;;;;;;;4972787;28;20526;-68
2024/03/03 10:37:26;;;;;;;12.55;8.35;;;;;;;;;;4972041;28;20038;-72
2024/03/03 10:39:52;;;;;;;14.00;8.30;;;;;;;;;;4972136;28;20093;-69
2024/03/03 10:42:17;;;;;;;17.27;9.50;;;;;;;;;;4971561;28;20034;-70
2024/03/03 10:44:43;;;;;;;15.13;9.15;;;;;;;;;;4972238;28;20022;-69
2024/03/03 10:47:08;;;;;;;12.52;8.32;;;;;;;;;;4972409;28;20117;-70
2024/03/03 10:49:34;;;;;;;12.13;8.80;;;;;;;;;;4970556;28;20034;-69
2024/03/03 10:51:59;;;;;;;24.25;15.05;;;;;;;;;;4971274;28;20124;-73
2024/03/03 10:54:24;;;;;;;21.52;14.10;;;;;;;;;;4972308;28;20022;-73
2024/03/03 10:56:50;;;;;;;14.55;9.43;;;;;;;;;;4973603;28;20417;-70
2024/03/03 10:59:15;;;;;;;14.23;9.13;;;;;;;;;;4970638;28;20026;-69
2024/03/03 11:01:41;;;;;;;15.93;8.98;;;;;;;;;;4972242;28;20023;-70
2024/03/03 11:04:06;;;;;;;13.80;9.48;;;;;;;;;;4969968;28;20030;-67
2024/03/03 11:06:31;;;;;;;14.10;8.98;;;;;;;;;;4971583;28;20460;-68
2024/03/03 11:08:57;;;;;;;13.45;8.90;;;;;;;;;;4971404;28;20026;-68
2024/03/03 11:11:22;;;;;;;12.82;8.48;;;;;;;;;;4973667;28;20022;-68
2024/03/03 11:13:58;;;;;;;14.82;9.10;;;;;;;;;;4974882;28;20021;-68
2024/03/03 11:16:28;;;;;;;12.82;8.82;;;;;;;;;;4970157;28;20477;-68
2024/03/03 11:18:54;;;;;;;16.10;9.73;;;;;;;;;;4970819;28;20424;-69
2024/03/03 11:21:22;;;;;;;13.18;9.10;;;;;;;;;;4973826;28;20034;-67
2024/03/03 11:23:51;;;;;;;13.95;8.63;;;;;;;;;;4972186;28;20061;-67
2024/03/03 11:26:22;;;;;;;15.52;9.43;;;;;;;;;;4971253;28;20472;-66
2024/03/03 11:28:48;;;;;;;13.45;8.45;;;;;;;;;;4969946;28;21193;-66
2024/03/03 11:31:13;;;;;;;12.63;8.95;;;;;;;;;;4970180;28;20038;-66
2024/03/03 11:33:39;;;;;;;12.52;8.43;;;;;;;;;;4970786;28;20808;-66
2024/03/03 11:36:04;;;;;;;12.15;8.27;;;;;;;;;;4971517;28;20126;-67
2024/03/03 11:38:42;;;;;;;14.23;8.98;;;;;;;;;;4971540;28;20046;-67
2024/03/03 11:41:10;;;;;;;11.80;8.73;;;;;;;;;;4971644;28;20417;-67
2024/03/03 11:43:37;;;;;;;12.10;8.40;;;;;;;;;;4969748;28;20030;-67
2024/03/03 11:46:03;;;;;;;13.35;8.65;;;;;;;;;;4971645;28;20030;-67
2024/03/03 11:48:28;;;;;;;13.07;8.52;;;;;;;;;;4972740;28;20517;-67
2024/03/03 11:51:13;;;;;;;11.93;8.75;;;;;;;;;;4970003;28;20156;-68
2024/03/03 11:53:38;;;;;;;13.98;8.23;;;;;;;;;;4970947;28;20034;-67
2024/03/03 11:56:04;;;;;;;11.50;8.38;;;;;;;;;;4975300;28;20039;-67
2024/03/03 11:58:31;;;;;;;12.43;8.90;;;;;;;;;;4973840;28;20055;-67
2024/03/03 12:01:16;;;;;;;11.32;7.93;;;;;;;;;;4970886;28;20031;-67
2024/03/03 12:03:41;;;;;;;12.25;7.68;;;;;;;;;;4970770;28;20058;-67
2024/03/03 12:06:07;;;;;;;13.52;8.52;;;;;;;;;;4975153;28;20046;-67
2024/03/03 12:08:32;;;;;;;15.25;9.40;;;;;;;;;;4967808;28;20385;-69
2024/03/03 12:10:57;;;;;;;15.20;8.93;;;;;;;;;;4970613;28;20035;-67
2024/03/03 12:13:23;;;;;;;14.13;10.02;;;;;;;;;;4968768;28;20070;-72
2024/03/03 12:15:50;;;;;;;15.13;9.50;;;;;;;;;;4973525;28;20023;-70
2024/03/03 12:18:15;;;;;;;14.65;9.07;;;;;;;;;;4969837;28;20077;-66
2024/03/03 12:20:43;;;;;;;15.95;10.15;;;;;;;;;;4970981;28;20027;-69
2024/03/03 12:23:08;;;;;;;16.13;8.98;;;;;;;;;;4972550;28;20410;-67
2024/03/03 12:25:34;;;;;;;15.00;9.15;;;;;;;;;;4971747;28;20038;-66
2024/03/03 12:28:02;;;;;;;14.32;8.73;;;;;;;;;;4974824;28;22070;-68
2024/03/03 12:30:34;;;;;;;12.90;8.77;;;;;;;;;;4977222;28;20029;-67
2024/03/03 12:33:04;;;;;;;14.32;8.60;;;;;;;;;;4976903;28;20137;-71
2024/03/03 12:35:29;;;;;;;12.32;8.20;;;;;;;;;;4975511;28;20981;-69
2024/03/03 12:37:55;;;;;;;11.05;7.22;;;;;;;;;;4974695;28;20054;-68
2024/03/03 12:40:20;;;;;;;11.48;7.47;;;;;;;;;;4975762;28;20085;-69
2024/03/03 12:42:49;;;;;;;10.55;7.80;;;;;;;;;;4973504;28;20183;-69
2024/03/03 12:45:14;;;;;;;13.00;7.30;;;;;;;;;;4978419;28;20816;-72
2024/03/03 12:47:40;;;;;;;10.93;7.18;;;;;;;;;;4974030;28;20069;-71
2024/03/03 12:50:05;;;;;;;10.85;7.05;;;;;;;;;;4975303;28;20057;-70
2024/03/03 12:52:30;;;;;;;10.73;7.70;;;;;;;;;;4975277;28;20046;-67
2024/03/03 12:54:56;;;;;;;12.07;7.47;;;;;;;;;;4978856;28;20069;-67
2024/03/03 12:57:23;;;;;;;10.63;7.20;;;;;;;;;;4973189;28;20105;-66
2024/03/03 12:59:48;;;;;;;10.73;7.18;;;;;;;;;;4976935;28;20034;-67
2024/03/03 13:02:15;;;;;;;13.23;8.07;;;;;;;;;;4975399;28;21464;-67
2024/03/03 13:04:40;;;;;;;12.07;7.57;;;;;;;;;;4973221;28;20038;-67
2024/03/03 13:07:09;;;;;;;11.43;7.13;;;;;;;;;;4973798;28;20030;-66
2024/03/03 13:09:34;;;;;;;11.88;7.72;;;;;;;;;;4973380;28;20065;-67
2024/03/03 13:12:00;;;;;;;12.32;7.10;;;;;;;;;;4973525;28;20121;-66
2024/03/03 13:14:25;;;;;;;10.98;7.25;;;;;;;;;;4972998;28;20037;-67
2024/03/03 13:17:00;;;;;;;11.90;7.35;;;;;;;;;;4974217;28;20089;-68
2024/03/03 13:19:40;;;;;;;11.88;7.13;;;;;;;;;;4973493;28;20046;-67
2024/03/03 13:22:05;;;;;;;12.43;7.40;;;;;;;;;;4973051;28;20202;-67
2024/03/03 13:24:31;;;;;;;10.05;7.20;;;;;;;;;;4972284;28;20050;-67
2024/03/03 13:26:56;;;;;;;10.68;6.93;;;;;;;;;;4975744;28;20062;-68
2024/03/03 13:29:21;;;;;;;13.30;7.82;;;;;;;;;;4971260;28;20145;-67
2024/03/03 13:31:47;;;;;;;13.85;8.20;;;;;;;;;;4973566;28;20038;-67
2024/03/03 13:34:12;;;;;;;10.93;7.40;;;;;;;;;;4972494;28;20041;-66
2024/03/03 13:36:37;;;;;;;10.15;6.85;;;;;;;;;;4973324;28;20501;-66
2024/03/03 13:39:03;;;;;;;12.73;7.00;;;;;;;;;;4976541;28;20095;-65
2024/03/03 13:41:29;;;;;;;11.65;7.00;;;;;;;;;;4973356;28;20032;-65
2024/03/03 13:43:54;;;;;;;13.57;7.35;;;;;;;;;;4973798;28;20050;-64
2024/03/03 13:46:19;;;;;;;11.27;7.22;;;;;;;;;;4973560;28;20062;-66
2024/03/03 13:48:45;;;;;;;10.55;7.13;;;;;;;;;;4973911;28;20056;-66
2024/03/03 13:51:10;;;;;;;10.85;7.13;;;;;;;;;;4973147;28;20049;-66
2024/03/03 13:53:35;;;;;;;12.20;7.72;;;;;;;;;;4973232;28;20038;-66
2024/03/03 13:56:01;;;;;;;11.52;7.15;;;;;;;;;;4972720;28;20763;-65
2024/03/03 13:58:26;;;;;;;13.20;7.55;;;;;;;;;;4972465;28;20583;-66
2024/03/03 14:00:51;;;;;;;10.88;7.22;;;;;;;;;;4972291;28;20035;-66
2024/03/03 14:03:17;;;;;;;12.73;7.40;;;;;;;;;;4974741;28;20062;-67
2024/03/03 14:05:42;;;;;;;13.18;7.38;;;;;;;;;;4973629;28;20125;-66
2024/03/03 14:08:07;;;;;;;12.30;6.72;;;;;;;;;;4972275;28;20042;-67
2024/03/03 14:10:33;;;;;;;11.07;7.13;;;;;;;;;;4972180;28;20715;-67
2024/03/03 14:12:58;;;;;;;13.13;7.70;;;;;;;;;;4972020;28;20507;-65
2024/03/03 14:15:24;;;;;;;14.15;7.93;;;;;;;;;;4973303;28;20034;-68
2024/03/03 14:17:50;;;;;;;13.88;7.90;;;;;;;;;;4973174;28;20046;-66
2024/03/03 14:20:16;;;;;;;11.50;7.50;;;;;;;;;;4973611;28;20030;-67
2024/03/03 14:22:48;;;;;;;13.00;6.88;;;;;;;;;;4971660;28;20464;-68
2024/03/03 14:25:13;;;;;;;9.75;6.13;;;;;;;;;;4968785;28;20039;-68
2024/03/03 14:27:39;;;;;;;9.02;5.32;;;;;;;;;;4972698;28;20086;-69
2024/03/03 14:30:06;;;;;;;8.63;4.82;;;;;;;;;;4971698;28;20038;-68
2024/03/03 14:32:32;;;;;;;8.85;5.07;;;;;;;;;;4973276;28;20152;-68
2024/03/03 14:34:57;;;;;;;10.13;5.95;;;;;;;;;;4973027;28;20097;-69